<?xml version="1.0" encoding="UTF-8"?>
<gpx xmlns="http://www.topografix.com/GPX/1/1" xmlns:xsi="http://www.w3.org/2001/XMLSchema-instance" version="1.1" xsi:schemaLocation="http://www.topografix.com/GPX/1/1 http://www.topografix.com/GPX/1/1/gpx.xsd">
  <metadata>
    <name>Rock Hall Triathlon 2022 - Olympic Aquabike</name>
  </metadata>
  <trk>
    <name>Rock Hall Triathlon 2022 - Olympic Aquabike</name>
    <trkseg>
      <trkpt lat="39.134212" lon="-76.241942">
        <ele>2.732601</ele>
        <time>2024-09-28T09:00:00.000Z</time>
      </trkpt>
      <trkpt lat="39.134223" lon="-76.241942">
        <ele>2.732589</ele>
        <time>2024-09-28T09:00:00.000Z</time>
      </trkpt>
      <trkpt lat="39.134346" lon="-76.241718">
        <ele>2.732593</ele>
        <time>2024-09-28T09:00:02.000Z</time>
      </trkpt>
      <trkpt lat="39.13472" lon="-76.241075">
        <ele>2.732588</ele>
        <time>2024-09-28T09:00:09.000Z</time>
      </trkpt>
      <trkpt lat="39.13486" lon="-76.240802">
        <ele>2.758897</ele>
        <time>2024-09-28T09:00:12.000Z</time>
      </trkpt>
      <trkpt lat="39.135107" lon="-76.240136">
        <ele>2.834659</ele>
        <time>2024-09-28T09:00:18.000Z</time>
      </trkpt>
      <trkpt lat="39.135138" lon="-76.240033">
        <ele>2.845764</ele>
        <time>2024-09-28T09:00:19.000Z</time>
      </trkpt>
      <trkpt lat="39.135558" lon="-76.238565">
        <ele>2.973216</ele>
        <time>2024-09-28T09:00:32.000Z</time>
      </trkpt>
      <trkpt lat="39.135719" lon="-76.238017">
        <ele>2.981333</ele>
        <time>2024-09-28T09:00:37.000Z</time>
      </trkpt>
      <trkpt lat="39.13593" lon="-76.237286">
        <ele>2.99173</ele>
        <time>2024-09-28T09:00:44.000Z</time>
      </trkpt>
      <trkpt lat="39.136308" lon="-76.235939">
        <ele>2.999993</ele>
        <time>2024-09-28T09:00:56.000Z</time>
      </trkpt>
      <trkpt lat="39.137238" lon="-76.236112">
        <ele>2.999997</ele>
        <time>2024-09-28T09:01:06.000Z</time>
      </trkpt>
      <trkpt lat="39.137736" lon="-76.236168">
        <ele>2.999991</ele>
        <time>2024-09-28T09:01:12.000Z</time>
      </trkpt>
      <trkpt lat="39.138283" lon="-76.236235">
        <ele>3.000001</ele>
        <time>2024-09-28T09:01:18.000Z</time>
      </trkpt>
      <trkpt lat="39.138626" lon="-76.236283">
        <ele>3.000005</ele>
        <time>2024-09-28T09:01:22.000Z</time>
      </trkpt>
      <trkpt lat="39.138574" lon="-76.23574">
        <ele>3.000004</ele>
        <time>2024-09-28T09:01:27.000Z</time>
      </trkpt>
      <trkpt lat="39.138502" lon="-76.23495">
        <ele>3.000004</ele>
        <time>2024-09-28T09:01:34.000Z</time>
      </trkpt>
      <trkpt lat="39.139249" lon="-76.235014">
        <ele>3</ele>
        <time>2024-09-28T09:01:42.000Z</time>
      </trkpt>
      <trkpt lat="39.139389" lon="-76.235042">
        <ele>2.999999</ele>
        <time>2024-09-28T09:01:44.000Z</time>
      </trkpt>
      <trkpt lat="39.140361" lon="-76.235312">
        <ele>3.000005</ele>
        <time>2024-09-28T09:01:55.000Z</time>
      </trkpt>
      <trkpt lat="39.140639" lon="-76.235389">
        <ele>2.999999</ele>
        <time>2024-09-28T09:01:58.000Z</time>
      </trkpt>
      <trkpt lat="39.140696" lon="-76.235396">
        <ele>3.000009</ele>
        <time>2024-09-28T09:01:59.000Z</time>
      </trkpt>
      <trkpt lat="39.141595" lon="-76.235628">
        <ele>3.000009</ele>
        <time>2024-09-28T09:02:09.000Z</time>
      </trkpt>
      <trkpt lat="39.142342" lon="-76.235726">
        <ele>2.999995</ele>
        <time>2024-09-28T09:02:17.000Z</time>
      </trkpt>
      <trkpt lat="39.142958" lon="-76.235815">
        <ele>3.000007</ele>
        <time>2024-09-28T09:02:24.000Z</time>
      </trkpt>
      <trkpt lat="39.143108" lon="-76.235817">
        <ele>3</ele>
        <time>2024-09-28T09:02:26.000Z</time>
      </trkpt>
      <trkpt lat="39.143578" lon="-76.235834">
        <ele>2.999998</ele>
        <time>2024-09-28T09:02:31.000Z</time>
      </trkpt>
      <trkpt lat="39.144041" lon="-76.235818">
        <ele>3.000005</ele>
        <time>2024-09-28T09:02:36.000Z</time>
      </trkpt>
      <trkpt lat="39.14421" lon="-76.235804">
        <ele>2.999999</ele>
        <time>2024-09-28T09:02:38.000Z</time>
      </trkpt>
      <trkpt lat="39.144869" lon="-76.235772">
        <ele>3.000006</ele>
        <time>2024-09-28T09:02:45.000Z</time>
      </trkpt>
      <trkpt lat="39.145167" lon="-76.235889">
        <ele>2.999995</ele>
        <time>2024-09-28T09:02:48.000Z</time>
      </trkpt>
      <trkpt lat="39.145809" lon="-76.236272">
        <ele>2.999994</ele>
        <time>2024-09-28T09:02:56.000Z</time>
      </trkpt>
      <trkpt lat="39.146042" lon="-76.23643">
        <ele>2.999998</ele>
        <time>2024-09-28T09:02:59.000Z</time>
      </trkpt>
      <trkpt lat="39.146154" lon="-76.236504">
        <ele>2.999997</ele>
        <time>2024-09-28T09:03:00.000Z</time>
      </trkpt>
      <trkpt lat="39.146708" lon="-76.236834">
        <ele>2.999997</ele>
        <time>2024-09-28T09:03:07.000Z</time>
      </trkpt>
      <trkpt lat="39.14693" lon="-76.236976">
        <ele>3.000003</ele>
        <time>2024-09-28T09:03:10.000Z</time>
      </trkpt>
      <trkpt lat="39.147574" lon="-76.237386">
        <ele>2.999991</ele>
        <time>2024-09-28T09:03:18.000Z</time>
      </trkpt>
      <trkpt lat="39.148318" lon="-76.237817">
        <ele>3.000002</ele>
        <time>2024-09-28T09:03:27.000Z</time>
      </trkpt>
      <trkpt lat="39.14918" lon="-76.238347">
        <ele>3.000002</ele>
        <time>2024-09-28T09:03:38.000Z</time>
      </trkpt>
      <trkpt lat="39.153709" lon="-76.241201">
        <ele>2.999998</ele>
        <time>2024-09-28T09:04:34.000Z</time>
      </trkpt>
      <trkpt lat="39.154532" lon="-76.241766">
        <ele>2.999991</ele>
        <time>2024-09-28T09:04:44.000Z</time>
      </trkpt>
      <trkpt lat="39.157133" lon="-76.243535">
        <ele>2.999993</ele>
        <time>2024-09-28T09:05:17.000Z</time>
      </trkpt>
      <trkpt lat="39.15847" lon="-76.244378">
        <ele>2.999993</ele>
        <time>2024-09-28T09:05:34.000Z</time>
      </trkpt>
      <trkpt lat="39.158995" lon="-76.244601">
        <ele>3.000003</ele>
        <time>2024-09-28T09:05:40.000Z</time>
      </trkpt>
      <trkpt lat="39.159614" lon="-76.24472">
        <ele>2.999999</ele>
        <time>2024-09-28T09:05:47.000Z</time>
      </trkpt>
      <trkpt lat="39.160434" lon="-76.244602">
        <ele>3.000007</ele>
        <time>2024-09-28T09:05:56.000Z</time>
      </trkpt>
      <trkpt lat="39.161115" lon="-76.244289">
        <ele>3</ele>
        <time>2024-09-28T09:06:04.000Z</time>
      </trkpt>
      <trkpt lat="39.161503" lon="-76.243979">
        <ele>2.999995</ele>
        <time>2024-09-28T09:06:09.000Z</time>
      </trkpt>
      <trkpt lat="39.163382" lon="-76.242244">
        <ele>3.000006</ele>
        <time>2024-09-28T09:06:35.000Z</time>
      </trkpt>
      <trkpt lat="39.164059" lon="-76.241601">
        <ele>2.999999</ele>
        <time>2024-09-28T09:06:44.000Z</time>
      </trkpt>
      <trkpt lat="39.164476" lon="-76.241115">
        <ele>2.999998</ele>
        <time>2024-09-28T09:06:50.000Z</time>
      </trkpt>
      <trkpt lat="39.164837" lon="-76.240441">
        <ele>2.999995</ele>
        <time>2024-09-28T09:06:57.000Z</time>
      </trkpt>
      <trkpt lat="39.165199" lon="-76.239477">
        <ele>2.999991</ele>
        <time>2024-09-28T09:07:06.000Z</time>
      </trkpt>
      <trkpt lat="39.166985" lon="-76.234523">
        <ele>2.999997</ele>
        <time>2024-09-28T09:07:53.000Z</time>
      </trkpt>
      <trkpt lat="39.167234" lon="-76.233927">
        <ele>3.000005</ele>
        <time>2024-09-28T09:07:59.000Z</time>
      </trkpt>
      <trkpt lat="39.167504" lon="-76.23345">
        <ele>3.000005</ele>
        <time>2024-09-28T09:08:04.000Z</time>
      </trkpt>
      <trkpt lat="39.167906" lon="-76.232944">
        <ele>3</ele>
        <time>2024-09-28T09:08:10.000Z</time>
      </trkpt>
      <trkpt lat="39.168651" lon="-76.232375">
        <ele>2.999998</ele>
        <time>2024-09-28T09:08:20.000Z</time>
      </trkpt>
      <trkpt lat="39.16936" lon="-76.232098">
        <ele>3.000002</ele>
        <time>2024-09-28T09:08:28.000Z</time>
      </trkpt>
      <trkpt lat="39.169873" lon="-76.232049">
        <ele>2.999992</ele>
        <time>2024-09-28T09:08:34.000Z</time>
      </trkpt>
      <trkpt lat="39.170252" lon="-76.23207">
        <ele>2.999999</ele>
        <time>2024-09-28T09:08:38.000Z</time>
      </trkpt>
      <trkpt lat="39.17078" lon="-76.232211">
        <ele>3.000004</ele>
        <time>2024-09-28T09:08:44.000Z</time>
      </trkpt>
      <trkpt lat="39.172899" lon="-76.23302">
        <ele>2.999992</ele>
        <time>2024-09-28T09:09:09.000Z</time>
      </trkpt>
      <trkpt lat="39.174249" lon="-76.233514">
        <ele>3</ele>
        <time>2024-09-28T09:09:25.000Z</time>
      </trkpt>
      <trkpt lat="39.175446" lon="-76.233709">
        <ele>3.010871</ele>
        <time>2024-09-28T09:09:38.000Z</time>
      </trkpt>
      <trkpt lat="39.175554" lon="-76.233732">
        <ele>3.012269</ele>
        <time>2024-09-28T09:09:39.000Z</time>
      </trkpt>
      <trkpt lat="39.179187" lon="-76.234256">
        <ele>3.20535</ele>
        <time>2024-09-28T09:10:20.000Z</time>
      </trkpt>
      <trkpt lat="39.179692" lon="-76.234325">
        <ele>3.272966</ele>
        <time>2024-09-28T09:10:26.000Z</time>
      </trkpt>
      <trkpt lat="39.179749" lon="-76.23433">
        <ele>3.280513</ele>
        <time>2024-09-28T09:10:27.000Z</time>
      </trkpt>
      <trkpt lat="39.183237" lon="-76.234816">
        <ele>4.472109</ele>
        <time>2024-09-28T09:11:06.000Z</time>
      </trkpt>
      <trkpt lat="39.183874" lon="-76.234773">
        <ele>4.639385</ele>
        <time>2024-09-28T09:11:13.000Z</time>
      </trkpt>
      <trkpt lat="39.184303" lon="-76.234669">
        <ele>4.708813</ele>
        <time>2024-09-28T09:11:18.000Z</time>
      </trkpt>
      <trkpt lat="39.189414" lon="-76.232527">
        <ele>5.529898</ele>
        <time>2024-09-28T09:12:18.000Z</time>
      </trkpt>
      <trkpt lat="39.190845" lon="-76.231919">
        <ele>5.772692</ele>
        <time>2024-09-28T09:12:35.000Z</time>
      </trkpt>
      <trkpt lat="39.192097" lon="-76.231417">
        <ele>5.961774</ele>
        <time>2024-09-28T09:12:50.000Z</time>
      </trkpt>
      <trkpt lat="39.192918" lon="-76.231255">
        <ele>5.982932</ele>
        <time>2024-09-28T09:12:59.000Z</time>
      </trkpt>
      <trkpt lat="39.193685" lon="-76.23131">
        <ele>5.9957</ele>
        <time>2024-09-28T09:13:08.000Z</time>
      </trkpt>
      <trkpt lat="39.195747" lon="-76.231765">
        <ele>5.999777</ele>
        <time>2024-09-28T09:13:31.000Z</time>
      </trkpt>
      <trkpt lat="39.196881" lon="-76.232018">
        <ele>5.994979</ele>
        <time>2024-09-28T09:13:44.000Z</time>
      </trkpt>
      <trkpt lat="39.197441" lon="-76.232143">
        <ele>5.992626</ele>
        <time>2024-09-28T09:13:50.000Z</time>
      </trkpt>
      <trkpt lat="39.200627" lon="-76.232866">
        <ele>5.858059</ele>
        <time>2024-09-28T09:14:26.000Z</time>
      </trkpt>
      <trkpt lat="39.200901" lon="-76.23294">
        <ele>5.84065</ele>
        <time>2024-09-28T09:14:29.000Z</time>
      </trkpt>
      <trkpt lat="39.201318" lon="-76.233014">
        <ele>5.755496</ele>
        <time>2024-09-28T09:14:34.000Z</time>
      </trkpt>
      <trkpt lat="39.202121" lon="-76.233195">
        <ele>5.556965</ele>
        <time>2024-09-28T09:14:43.000Z</time>
      </trkpt>
      <trkpt lat="39.202715" lon="-76.233204">
        <ele>5.407441</ele>
        <time>2024-09-28T09:14:50.000Z</time>
      </trkpt>
      <trkpt lat="39.203388" lon="-76.23307">
        <ele>5.301703</ele>
        <time>2024-09-28T09:14:58.000Z</time>
      </trkpt>
      <trkpt lat="39.20408" lon="-76.232757">
        <ele>5.20237</ele>
        <time>2024-09-28T09:15:06.000Z</time>
      </trkpt>
      <trkpt lat="39.204366" lon="-76.232626">
        <ele>5.160884</ele>
        <time>2024-09-28T09:15:09.000Z</time>
      </trkpt>
      <trkpt lat="39.205331" lon="-76.232058">
        <ele>5.295675</ele>
        <time>2024-09-28T09:15:21.000Z</time>
      </trkpt>
      <trkpt lat="39.205846" lon="-76.231672">
        <ele>5.399953</ele>
        <time>2024-09-28T09:15:28.000Z</time>
      </trkpt>
      <trkpt lat="39.207753" lon="-76.229968">
        <ele>5.891274</ele>
        <time>2024-09-28T09:15:54.000Z</time>
      </trkpt>
      <trkpt lat="39.208707" lon="-76.229334">
        <ele>6.097504</ele>
        <time>2024-09-28T09:16:06.000Z</time>
      </trkpt>
      <trkpt lat="39.212623" lon="-76.227089">
        <ele>6.840126</ele>
        <time>2024-09-28T09:16:54.000Z</time>
      </trkpt>
      <trkpt lat="39.214099" lon="-76.226393">
        <ele>6.843318</ele>
        <time>2024-09-28T09:17:11.000Z</time>
      </trkpt>
      <trkpt lat="39.214939" lon="-76.226031">
        <ele>6.721359</ele>
        <time>2024-09-28T09:17:21.000Z</time>
      </trkpt>
      <trkpt lat="39.218008" lon="-76.224616">
        <ele>6.458808</ele>
        <time>2024-09-28T09:17:57.000Z</time>
      </trkpt>
      <trkpt lat="39.221653" lon="-76.222232">
        <ele>7.27744</ele>
        <time>2024-09-28T09:18:42.000Z</time>
      </trkpt>
      <trkpt lat="39.225698" lon="-76.219463">
        <ele>8.985047</ele>
        <time>2024-09-28T09:19:33.000Z</time>
      </trkpt>
      <trkpt lat="39.228803" lon="-76.217335">
        <ele>10.15466</ele>
        <time>2024-09-28T09:20:12.000Z</time>
      </trkpt>
      <trkpt lat="39.229199" lon="-76.217118">
        <ele>10.222372</ele>
        <time>2024-09-28T09:20:17.000Z</time>
      </trkpt>
      <trkpt lat="39.229647" lon="-76.216953">
        <ele>10.297817</ele>
        <time>2024-09-28T09:20:22.000Z</time>
      </trkpt>
      <trkpt lat="39.231572" lon="-76.216621">
        <ele>10.658837</ele>
        <time>2024-09-28T09:20:44.000Z</time>
      </trkpt>
      <trkpt lat="39.231906" lon="-76.216549">
        <ele>10.730683</ele>
        <time>2024-09-28T09:20:48.000Z</time>
      </trkpt>
      <trkpt lat="39.234614" lon="-76.216091">
        <ele>11.436307</ele>
        <time>2024-09-28T09:21:18.000Z</time>
      </trkpt>
      <trkpt lat="39.235218" lon="-76.215925">
        <ele>11.551713</ele>
        <time>2024-09-28T09:21:25.000Z</time>
      </trkpt>
      <trkpt lat="39.235546" lon="-76.215719">
        <ele>11.617625</ele>
        <time>2024-09-28T09:21:29.000Z</time>
      </trkpt>
      <trkpt lat="39.235748" lon="-76.215509">
        <ele>11.652011</ele>
        <time>2024-09-28T09:21:32.000Z</time>
      </trkpt>
      <trkpt lat="39.236087" lon="-76.21491">
        <ele>11.544865</ele>
        <time>2024-09-28T09:21:38.000Z</time>
      </trkpt>
      <trkpt lat="39.23618" lon="-76.214574">
        <ele>11.494053</ele>
        <time>2024-09-28T09:21:41.000Z</time>
      </trkpt>
      <trkpt lat="39.23627" lon="-76.213748">
        <ele>11.376962</ele>
        <time>2024-09-28T09:21:48.000Z</time>
      </trkpt>
      <trkpt lat="39.236419" lon="-76.213264">
        <ele>11.282898</ele>
        <time>2024-09-28T09:21:52.000Z</time>
      </trkpt>
      <trkpt lat="39.236765" lon="-76.212646">
        <ele>11.096734</ele>
        <time>2024-09-28T09:21:59.000Z</time>
      </trkpt>
      <trkpt lat="39.237253" lon="-76.21209">
        <ele>10.890297</ele>
        <time>2024-09-28T09:22:06.000Z</time>
      </trkpt>
      <trkpt lat="39.23754" lon="-76.211471">
        <ele>10.704831</ele>
        <time>2024-09-28T09:22:12.000Z</time>
      </trkpt>
      <trkpt lat="39.237653" lon="-76.210906">
        <ele>10.527419</ele>
        <time>2024-09-28T09:22:17.000Z</time>
      </trkpt>
      <trkpt lat="39.237621" lon="-76.210246">
        <ele>10.323858</ele>
        <time>2024-09-28T09:22:23.000Z</time>
      </trkpt>
      <trkpt lat="39.237461" lon="-76.209605">
        <ele>10.12162</ele>
        <time>2024-09-28T09:22:29.000Z</time>
      </trkpt>
      <trkpt lat="39.236545" lon="-76.207593">
        <ele>9.577238</ele>
        <time>2024-09-28T09:22:49.000Z</time>
      </trkpt>
      <trkpt lat="39.234125" lon="-76.202386">
        <ele>9.201568</ele>
        <time>2024-09-28T09:23:41.000Z</time>
      </trkpt>
      <trkpt lat="39.233277" lon="-76.200558">
        <ele>9.183018</ele>
        <time>2024-09-28T09:23:59.000Z</time>
      </trkpt>
      <trkpt lat="39.233197" lon="-76.20039">
        <ele>9.189348</ele>
        <time>2024-09-28T09:24:01.000Z</time>
      </trkpt>
      <trkpt lat="39.232772" lon="-76.199535">
        <ele>9.223923</ele>
        <time>2024-09-28T09:24:10.000Z</time>
      </trkpt>
      <trkpt lat="39.231724" lon="-76.197294">
        <ele>9.631953</ele>
        <time>2024-09-28T09:24:33.000Z</time>
      </trkpt>
      <trkpt lat="39.229648" lon="-76.194109">
        <ele>10.495353</ele>
        <time>2024-09-28T09:25:09.000Z</time>
      </trkpt>
      <trkpt lat="39.228441" lon="-76.190857">
        <ele>10.431327</ele>
        <time>2024-09-28T09:25:40.000Z</time>
      </trkpt>
      <trkpt lat="39.226959" lon="-76.187269">
        <ele>9.575748</ele>
        <time>2024-09-28T09:26:15.000Z</time>
      </trkpt>
      <trkpt lat="39.226816" lon="-76.186818">
        <ele>9.210066</ele>
        <time>2024-09-28T09:26:19.000Z</time>
      </trkpt>
      <trkpt lat="39.226718" lon="-76.186187">
        <ele>8.720968</ele>
        <time>2024-09-28T09:26:25.000Z</time>
      </trkpt>
      <trkpt lat="39.226794" lon="-76.185122">
        <ele>7.864516</ele>
        <time>2024-09-28T09:26:34.000Z</time>
      </trkpt>
      <trkpt lat="39.226868" lon="-76.184315">
        <ele>7.137085</ele>
        <time>2024-09-28T09:26:41.000Z</time>
      </trkpt>
      <trkpt lat="39.22684" lon="-76.183827">
        <ele>6.691934</ele>
        <time>2024-09-28T09:26:45.000Z</time>
      </trkpt>
      <trkpt lat="39.226474" lon="-76.182101">
        <ele>6.094389</ele>
        <time>2024-09-28T09:27:00.000Z</time>
      </trkpt>
      <trkpt lat="39.225891" lon="-76.179407">
        <ele>7.03319</ele>
        <time>2024-09-28T09:27:24.000Z</time>
      </trkpt>
      <trkpt lat="39.225824" lon="-76.179078">
        <ele>7.228543</ele>
        <time>2024-09-28T09:27:27.000Z</time>
      </trkpt>
      <trkpt lat="39.225633" lon="-76.178233">
        <ele>7.962547</ele>
        <time>2024-09-28T09:27:35.000Z</time>
      </trkpt>
      <trkpt lat="39.225097" lon="-76.176803">
        <ele>9.705287</ele>
        <time>2024-09-28T09:27:49.000Z</time>
      </trkpt>
      <trkpt lat="39.224014" lon="-76.174023">
        <ele>14.259154</ele>
        <time>2024-09-28T09:28:16.000Z</time>
      </trkpt>
      <trkpt lat="39.224061" lon="-76.173736">
        <ele>14.650662</ele>
        <time>2024-09-28T09:28:19.000Z</time>
      </trkpt>
      <trkpt lat="39.224092" lon="-76.171788">
        <ele>16.428546</ele>
        <time>2024-09-28T09:28:36.000Z</time>
      </trkpt>
      <trkpt lat="39.225718" lon="-76.171111">
        <ele>14.456299</ele>
        <time>2024-09-28T09:28:55.000Z</time>
      </trkpt>
      <trkpt lat="39.225826" lon="-76.171062">
        <ele>14.148557</ele>
        <time>2024-09-28T09:28:56.000Z</time>
      </trkpt>
      <trkpt lat="39.226685" lon="-76.170712">
        <ele>11.789565</ele>
        <time>2024-09-28T09:29:06.000Z</time>
      </trkpt>
      <trkpt lat="39.226892" lon="-76.17064">
        <ele>11.238516</ele>
        <time>2024-09-28T09:29:08.000Z</time>
      </trkpt>
      <trkpt lat="39.226961" lon="-76.1706">
        <ele>11.059536</ele>
        <time>2024-09-28T09:29:09.000Z</time>
      </trkpt>
      <trkpt lat="39.228208" lon="-76.170073">
        <ele>8.30646</ele>
        <time>2024-09-28T09:29:24.000Z</time>
      </trkpt>
      <trkpt lat="39.22926" lon="-76.169509">
        <ele>6.73965</ele>
        <time>2024-09-28T09:29:37.000Z</time>
      </trkpt>
      <trkpt lat="39.229733" lon="-76.169251">
        <ele>6.5623</ele>
        <time>2024-09-28T09:29:43.000Z</time>
      </trkpt>
      <trkpt lat="39.230463" lon="-76.168725">
        <ele>6.270171</ele>
        <time>2024-09-28T09:29:52.000Z</time>
      </trkpt>
      <trkpt lat="39.231178" lon="-76.167604">
        <ele>7.545409</ele>
        <time>2024-09-28T09:30:05.000Z</time>
      </trkpt>
      <trkpt lat="39.23189" lon="-76.166399">
        <ele>9.088514</ele>
        <time>2024-09-28T09:30:18.000Z</time>
      </trkpt>
      <trkpt lat="39.232563" lon="-76.165141">
        <ele>10.862279</ele>
        <time>2024-09-28T09:30:31.000Z</time>
      </trkpt>
      <trkpt lat="39.234267" lon="-76.161815">
        <ele>15.002699</ele>
        <time>2024-09-28T09:31:05.000Z</time>
      </trkpt>
      <trkpt lat="39.235014" lon="-76.160595">
        <ele>16.361723</ele>
        <time>2024-09-28T09:31:18.000Z</time>
      </trkpt>
      <trkpt lat="39.236677" lon="-76.158192">
        <ele>18.943708</ele>
        <time>2024-09-28T09:31:46.000Z</time>
      </trkpt>
      <trkpt lat="39.237643" lon="-76.156929">
        <ele>19.958532</ele>
        <time>2024-09-28T09:32:01.000Z</time>
      </trkpt>
      <trkpt lat="39.238462" lon="-76.156068">
        <ele>20.409028</ele>
        <time>2024-09-28T09:32:13.000Z</time>
      </trkpt>
      <trkpt lat="39.239296" lon="-76.155397">
        <ele>19.332164</ele>
        <time>2024-09-28T09:32:24.000Z</time>
      </trkpt>
      <trkpt lat="39.239558" lon="-76.155189">
        <ele>18.991299</ele>
        <time>2024-09-28T09:32:27.000Z</time>
      </trkpt>
      <trkpt lat="39.239972" lon="-76.154845">
        <ele>18.404518</ele>
        <time>2024-09-28T09:32:32.000Z</time>
      </trkpt>
      <trkpt lat="39.240926" lon="-76.154078">
        <ele>16.513545</ele>
        <time>2024-09-28T09:32:44.000Z</time>
      </trkpt>
      <trkpt lat="39.241587" lon="-76.153598">
        <ele>15.626872</ele>
        <time>2024-09-28T09:32:52.000Z</time>
      </trkpt>
      <trkpt lat="39.24429" lon="-76.151874">
        <ele>19.195173</ele>
        <time>2024-09-28T09:33:26.000Z</time>
      </trkpt>
      <trkpt lat="39.244899" lon="-76.151354">
        <ele>19.665813</ele>
        <time>2024-09-28T09:33:34.000Z</time>
      </trkpt>
      <trkpt lat="39.24541" lon="-76.150842">
        <ele>19.382899</ele>
        <time>2024-09-28T09:33:41.000Z</time>
      </trkpt>
      <trkpt lat="39.246068" lon="-76.150226">
        <ele>19.038565</ele>
        <time>2024-09-28T09:33:50.000Z</time>
      </trkpt>
      <trkpt lat="39.24714" lon="-76.14941">
        <ele>16.532153</ele>
        <time>2024-09-28T09:34:04.000Z</time>
      </trkpt>
      <trkpt lat="39.247661" lon="-76.149011">
        <ele>15.243347</ele>
        <time>2024-09-28T09:34:11.000Z</time>
      </trkpt>
      <trkpt lat="39.248496" lon="-76.14843">
        <ele>13.604772</ele>
        <time>2024-09-28T09:34:22.000Z</time>
      </trkpt>
      <trkpt lat="39.249066" lon="-76.148254">
        <ele>12.579822</ele>
        <time>2024-09-28T09:34:29.000Z</time>
      </trkpt>
      <trkpt lat="39.249786" lon="-76.148258">
        <ele>12.845271</ele>
        <time>2024-09-28T09:34:37.000Z</time>
      </trkpt>
      <trkpt lat="39.248753" lon="-76.145615">
        <ele>17.257797</ele>
        <time>2024-09-28T09:35:02.000Z</time>
      </trkpt>
      <trkpt lat="39.248422" lon="-76.145084">
        <ele>18.543525</ele>
        <time>2024-09-28T09:35:08.000Z</time>
      </trkpt>
      <trkpt lat="39.246835" lon="-76.143314">
        <ele>22.424604</ele>
        <time>2024-09-28T09:35:31.000Z</time>
      </trkpt>
      <trkpt lat="39.246722" lon="-76.143237">
        <ele>22.508844</ele>
        <time>2024-09-28T09:35:32.000Z</time>
      </trkpt>
      <trkpt lat="39.24647" lon="-76.143011">
        <ele>22.625775</ele>
        <time>2024-09-28T09:35:35.000Z</time>
      </trkpt>
      <trkpt lat="39.245327" lon="-76.142358">
        <ele>23.107421</ele>
        <time>2024-09-28T09:35:49.000Z</time>
      </trkpt>
      <trkpt lat="39.244571" lon="-76.142079">
        <ele>22.947467</ele>
        <time>2024-09-28T09:35:58.000Z</time>
      </trkpt>
      <trkpt lat="39.242457" lon="-76.141614">
        <ele>22.302912</ele>
        <time>2024-09-28T09:36:22.000Z</time>
      </trkpt>
      <trkpt lat="39.241889" lon="-76.141494">
        <ele>22.14658</ele>
        <time>2024-09-28T09:36:28.000Z</time>
      </trkpt>
      <trkpt lat="39.241213" lon="-76.141383">
        <ele>22.092178</ele>
        <time>2024-09-28T09:36:36.000Z</time>
      </trkpt>
      <trkpt lat="39.23899" lon="-76.141095">
        <ele>22.377371</ele>
        <time>2024-09-28T09:37:01.000Z</time>
      </trkpt>
      <trkpt lat="39.238563" lon="-76.140992">
        <ele>22.504227</ele>
        <time>2024-09-28T09:37:06.000Z</time>
      </trkpt>
      <trkpt lat="39.23817" lon="-76.140799">
        <ele>22.626982</ele>
        <time>2024-09-28T09:37:11.000Z</time>
      </trkpt>
      <trkpt lat="39.236642" lon="-76.139825">
        <ele>23.414618</ele>
        <time>2024-09-28T09:37:30.000Z</time>
      </trkpt>
      <trkpt lat="39.234654" lon="-76.138553">
        <ele>23.919875</ele>
        <time>2024-09-28T09:37:55.000Z</time>
      </trkpt>
      <trkpt lat="39.234077" lon="-76.138264">
        <ele>23.929474</ele>
        <time>2024-09-28T09:38:02.000Z</time>
      </trkpt>
      <trkpt lat="39.232438" lon="-76.137848">
        <ele>23.830795</ele>
        <time>2024-09-28T09:38:21.000Z</time>
      </trkpt>
      <trkpt lat="39.231044" lon="-76.13723">
        <ele>23.513245</ele>
        <time>2024-09-28T09:38:37.000Z</time>
      </trkpt>
      <trkpt lat="39.22782" lon="-76.135716">
        <ele>22.216354</ele>
        <time>2024-09-28T09:39:15.000Z</time>
      </trkpt>
      <trkpt lat="39.224087" lon="-76.139638">
        <ele>21.654473</ele>
        <time>2024-09-28T09:40:09.000Z</time>
      </trkpt>
      <trkpt lat="39.222712" lon="-76.14111">
        <ele>21.719165</ele>
        <time>2024-09-28T09:40:29.000Z</time>
      </trkpt>
      <trkpt lat="39.219729" lon="-76.144266">
        <ele>22.115821</ele>
        <time>2024-09-28T09:41:12.000Z</time>
      </trkpt>
      <trkpt lat="39.21957" lon="-76.144342">
        <ele>22.144649</ele>
        <time>2024-09-28T09:41:14.000Z</time>
      </trkpt>
      <trkpt lat="39.221108" lon="-76.153847">
        <ele>23.909735</ele>
        <time>2024-09-28T09:42:38.000Z</time>
      </trkpt>
      <trkpt lat="39.221345" lon="-76.155291">
        <ele>24.207106</ele>
        <time>2024-09-28T09:42:51.000Z</time>
      </trkpt>
      <trkpt lat="39.221701" lon="-76.157561">
        <ele>24.635717</ele>
        <time>2024-09-28T09:43:11.000Z</time>
      </trkpt>
      <trkpt lat="39.22193" lon="-76.159219">
        <ele>24.616875</ele>
        <time>2024-09-28T09:43:26.000Z</time>
      </trkpt>
      <trkpt lat="39.221898" lon="-76.162468">
        <ele>24.090539</ele>
        <time>2024-09-28T09:43:54.000Z</time>
      </trkpt>
      <trkpt lat="39.221889" lon="-76.16311">
        <ele>24.204751</ele>
        <time>2024-09-28T09:44:00.000Z</time>
      </trkpt>
      <trkpt lat="39.221795" lon="-76.164314">
        <ele>24.447457</ele>
        <time>2024-09-28T09:44:10.000Z</time>
      </trkpt>
      <trkpt lat="39.221634" lon="-76.16497">
        <ele>24.611862</ele>
        <time>2024-09-28T09:44:16.000Z</time>
      </trkpt>
      <trkpt lat="39.221424" lon="-76.165506">
        <ele>24.806793</ele>
        <time>2024-09-28T09:44:21.000Z</time>
      </trkpt>
      <trkpt lat="39.221011" lon="-76.166171">
        <ele>25.096389</ele>
        <time>2024-09-28T09:44:28.000Z</time>
      </trkpt>
      <trkpt lat="39.219977" lon="-76.167307">
        <ele>25.260146</ele>
        <time>2024-09-28T09:44:43.000Z</time>
      </trkpt>
      <trkpt lat="39.219848" lon="-76.167435">
        <ele>25.248541</ele>
        <time>2024-09-28T09:44:45.000Z</time>
      </trkpt>
      <trkpt lat="39.219519" lon="-76.167795">
        <ele>25.219134</ele>
        <time>2024-09-28T09:44:50.000Z</time>
      </trkpt>
      <trkpt lat="39.219351" lon="-76.167967">
        <ele>25.203595</ele>
        <time>2024-09-28T09:44:52.000Z</time>
      </trkpt>
      <trkpt lat="39.214533" lon="-76.173152">
        <ele>24.083267</ele>
        <time>2024-09-28T09:46:02.000Z</time>
      </trkpt>
      <trkpt lat="39.213181" lon="-76.174603">
        <ele>23.953612</ele>
        <time>2024-09-28T09:46:22.000Z</time>
      </trkpt>
      <trkpt lat="39.212263" lon="-76.175606">
        <ele>23.862272</ele>
        <time>2024-09-28T09:46:35.000Z</time>
      </trkpt>
      <trkpt lat="39.20959" lon="-76.178448">
        <ele>23.163965</ele>
        <time>2024-09-28T09:47:14.000Z</time>
      </trkpt>
      <trkpt lat="39.204609" lon="-76.183849">
        <ele>23.309914</ele>
        <time>2024-09-28T09:48:26.000Z</time>
      </trkpt>
      <trkpt lat="39.203171" lon="-76.185408">
        <ele>23.076168</ele>
        <time>2024-09-28T09:48:47.000Z</time>
      </trkpt>
      <trkpt lat="39.201536" lon="-76.187161">
        <ele>21.766411</ele>
        <time>2024-09-28T09:49:11.000Z</time>
      </trkpt>
      <trkpt lat="39.20065" lon="-76.188003">
        <ele>20.680525</ele>
        <time>2024-09-28T09:49:23.000Z</time>
      </trkpt>
      <trkpt lat="39.199181" lon="-76.189225">
        <ele>18.781356</ele>
        <time>2024-09-28T09:49:42.000Z</time>
      </trkpt>
      <trkpt lat="39.198957" lon="-76.189412">
        <ele>18.496779</ele>
        <time>2024-09-28T09:49:45.000Z</time>
      </trkpt>
      <trkpt lat="39.198316" lon="-76.189826">
        <ele>17.704398</ele>
        <time>2024-09-28T09:49:53.000Z</time>
      </trkpt>
      <trkpt lat="39.197792" lon="-76.19005">
        <ele>17.208621</ele>
        <time>2024-09-28T09:49:59.000Z</time>
      </trkpt>
      <trkpt lat="39.197576" lon="-76.190132">
        <ele>17.010009</ele>
        <time>2024-09-28T09:50:02.000Z</time>
      </trkpt>
      <trkpt lat="39.182012" lon="-76.194989">
        <ele>3.939757</ele>
        <time>2024-09-28T09:53:00.000Z</time>
      </trkpt>
      <trkpt lat="39.181412" lon="-76.195185">
        <ele>3.920276</ele>
        <time>2024-09-28T09:53:07.000Z</time>
      </trkpt>
      <trkpt lat="39.178882" lon="-76.195958">
        <ele>4.91709</ele>
        <time>2024-09-28T09:53:36.000Z</time>
      </trkpt>
      <trkpt lat="39.175613" lon="-76.196663">
        <ele>5.823382</ele>
        <time>2024-09-28T09:54:13.000Z</time>
      </trkpt>
      <trkpt lat="39.174563" lon="-76.196881">
        <ele>5.794853</ele>
        <time>2024-09-28T09:54:25.000Z</time>
      </trkpt>
      <trkpt lat="39.173778" lon="-76.197101">
        <ele>5.739669</ele>
        <time>2024-09-28T09:54:34.000Z</time>
      </trkpt>
      <trkpt lat="39.172924" lon="-76.19752">
        <ele>5.550165</ele>
        <time>2024-09-28T09:54:44.000Z</time>
      </trkpt>
      <trkpt lat="39.172692" lon="-76.197657">
        <ele>5.49451</ele>
        <time>2024-09-28T09:54:47.000Z</time>
      </trkpt>
      <trkpt lat="39.169426" lon="-76.199244">
        <ele>4.840027</ele>
        <time>2024-09-28T09:55:26.000Z</time>
      </trkpt>
      <trkpt lat="39.168475" lon="-76.19976">
        <ele>4.784204</ele>
        <time>2024-09-28T09:55:37.000Z</time>
      </trkpt>
      <trkpt lat="39.168212" lon="-76.199893">
        <ele>4.802512</ele>
        <time>2024-09-28T09:55:40.000Z</time>
      </trkpt>
      <trkpt lat="39.165485" lon="-76.201427">
        <ele>4.98165</ele>
        <time>2024-09-28T09:56:13.000Z</time>
      </trkpt>
      <trkpt lat="39.162907" lon="-76.203306">
        <ele>4.979878</ele>
        <time>2024-09-28T09:56:46.000Z</time>
      </trkpt>
      <trkpt lat="39.161017" lon="-76.204733">
        <ele>4.81829</ele>
        <time>2024-09-28T09:57:10.000Z</time>
      </trkpt>
      <trkpt lat="39.160033" lon="-76.20535">
        <ele>4.621725</ele>
        <time>2024-09-28T09:57:22.000Z</time>
      </trkpt>
      <trkpt lat="39.158186" lon="-76.206255">
        <ele>4.362452</ele>
        <time>2024-09-28T09:57:44.000Z</time>
      </trkpt>
      <trkpt lat="39.157912" lon="-76.206379">
        <ele>4.356564</ele>
        <time>2024-09-28T09:57:47.000Z</time>
      </trkpt>
      <trkpt lat="39.157737" lon="-76.206474">
        <ele>4.352403</ele>
        <time>2024-09-28T09:57:49.000Z</time>
      </trkpt>
      <trkpt lat="39.155525" lon="-76.207545">
        <ele>4.850585</ele>
        <time>2024-09-28T09:58:15.000Z</time>
      </trkpt>
      <trkpt lat="39.155022" lon="-76.207809">
        <ele>4.900242</ele>
        <time>2024-09-28T09:58:21.000Z</time>
      </trkpt>
      <trkpt lat="39.153804" lon="-76.208426">
        <ele>5.000002</ele>
        <time>2024-09-28T09:58:36.000Z</time>
      </trkpt>
      <trkpt lat="39.153276" lon="-76.208745">
        <ele>5</ele>
        <time>2024-09-28T09:58:42.000Z</time>
      </trkpt>
      <trkpt lat="39.152312" lon="-76.209487">
        <ele>4.998426</ele>
        <time>2024-09-28T09:58:54.000Z</time>
      </trkpt>
      <trkpt lat="39.151926" lon="-76.209914">
        <ele>4.990968</ele>
        <time>2024-09-28T09:59:00.000Z</time>
      </trkpt>
      <trkpt lat="39.151542" lon="-76.210535">
        <ele>4.981807</ele>
        <time>2024-09-28T09:59:07.000Z</time>
      </trkpt>
      <trkpt lat="39.150172" lon="-76.212842">
        <ele>4.807011</ele>
        <time>2024-09-28T09:59:32.000Z</time>
      </trkpt>
      <trkpt lat="39.149554" lon="-76.213887">
        <ele>4.393887</ele>
        <time>2024-09-28T09:59:43.000Z</time>
      </trkpt>
      <trkpt lat="39.149228" lon="-76.214429">
        <ele>4.164836</ele>
        <time>2024-09-28T09:59:49.000Z</time>
      </trkpt>
      <trkpt lat="39.149149" lon="-76.214556">
        <ele>4.107845</ele>
        <time>2024-09-28T09:59:50.000Z</time>
      </trkpt>
      <trkpt lat="39.149021" lon="-76.214768">
        <ele>4.014746</ele>
        <time>2024-09-28T09:59:52.000Z</time>
      </trkpt>
      <trkpt lat="39.148785" lon="-76.215163">
        <ele>3.85306</ele>
        <time>2024-09-28T09:59:56.000Z</time>
      </trkpt>
      <trkpt lat="39.148251" lon="-76.216084">
        <ele>3.475897</ele>
        <time>2024-09-28T10:00:06.000Z</time>
      </trkpt>
      <trkpt lat="39.148188" lon="-76.21619">
        <ele>3.431357</ele>
        <time>2024-09-28T10:00:07.000Z</time>
      </trkpt>
      <trkpt lat="39.148073" lon="-76.216389">
        <ele>3.352581</ele>
        <time>2024-09-28T10:00:09.000Z</time>
      </trkpt>
      <trkpt lat="39.14749" lon="-76.217274">
        <ele>3.266563</ele>
        <time>2024-09-28T10:00:19.000Z</time>
      </trkpt>
      <trkpt lat="39.146987" lon="-76.217836">
        <ele>3.290881</ele>
        <time>2024-09-28T10:00:26.000Z</time>
      </trkpt>
      <trkpt lat="39.146595" lon="-76.218164">
        <ele>3.307933</ele>
        <time>2024-09-28T10:00:31.000Z</time>
      </trkpt>
      <trkpt lat="39.145257" lon="-76.219063">
        <ele>3.300996</ele>
        <time>2024-09-28T10:00:48.000Z</time>
      </trkpt>
      <trkpt lat="39.144992" lon="-76.21924">
        <ele>3.299528</ele>
        <time>2024-09-28T10:00:51.000Z</time>
      </trkpt>
      <trkpt lat="39.144422" lon="-76.219724">
        <ele>3.202956</ele>
        <time>2024-09-28T10:00:59.000Z</time>
      </trkpt>
      <trkpt lat="39.143619" lon="-76.220652">
        <ele>3.046455</ele>
        <time>2024-09-28T10:01:11.000Z</time>
      </trkpt>
      <trkpt lat="39.143173" lon="-76.221264">
        <ele>3.100305</ele>
        <time>2024-09-28T10:01:18.000Z</time>
      </trkpt>
      <trkpt lat="39.14307" lon="-76.221399">
        <ele>3.114864</ele>
        <time>2024-09-28T10:01:20.000Z</time>
      </trkpt>
      <trkpt lat="39.142773" lon="-76.221798">
        <ele>3.158922</ele>
        <time>2024-09-28T10:01:25.000Z</time>
      </trkpt>
      <trkpt lat="39.142647" lon="-76.221955">
        <ele>3.175976</ele>
        <time>2024-09-28T10:01:27.000Z</time>
      </trkpt>
      <trkpt lat="39.14206" lon="-76.222589">
        <ele>3.265568</ele>
        <time>2024-09-28T10:01:36.000Z</time>
      </trkpt>
      <trkpt lat="39.14162" lon="-76.222876">
        <ele>3.333834</ele>
        <time>2024-09-28T10:01:41.000Z</time>
      </trkpt>
      <trkpt lat="39.141263" lon="-76.223168">
        <ele>3.393638</ele>
        <time>2024-09-28T10:01:46.000Z</time>
      </trkpt>
      <trkpt lat="39.1407" lon="-76.223672">
        <ele>3.455333</ele>
        <time>2024-09-28T10:01:54.000Z</time>
      </trkpt>
      <trkpt lat="39.14009" lon="-76.224332">
        <ele>3.343677</ele>
        <time>2024-09-28T10:02:03.000Z</time>
      </trkpt>
      <trkpt lat="39.139778" lon="-76.224842">
        <ele>3.27441</ele>
        <time>2024-09-28T10:02:09.000Z</time>
      </trkpt>
      <trkpt lat="39.139521" lon="-76.225455">
        <ele>3.202265</ele>
        <time>2024-09-28T10:02:15.000Z</time>
      </trkpt>
      <trkpt lat="39.139293" lon="-76.225334">
        <ele>3.175041</ele>
        <time>2024-09-28T10:02:18.000Z</time>
      </trkpt>
      <trkpt lat="39.139139" lon="-76.2254">
        <ele>3.154649</ele>
        <time>2024-09-28T10:02:20.000Z</time>
      </trkpt>
      <trkpt lat="39.138482" lon="-76.226289">
        <ele>3.043357</ele>
        <time>2024-09-28T10:02:31.000Z</time>
      </trkpt>
      <trkpt lat="39.13796" lon="-76.227033">
        <ele>3.008264</ele>
        <time>2024-09-28T10:02:40.000Z</time>
      </trkpt>
      <trkpt lat="39.137823" lon="-76.227247">
        <ele>3.006818</ele>
        <time>2024-09-28T10:02:42.000Z</time>
      </trkpt>
      <trkpt lat="39.137359" lon="-76.227745">
        <ele>3.003044</ele>
        <time>2024-09-28T10:02:49.000Z</time>
      </trkpt>
      <trkpt lat="39.136838" lon="-76.228023">
        <ele>3.000007</ele>
        <time>2024-09-28T10:02:55.000Z</time>
      </trkpt>
      <trkpt lat="39.136754" lon="-76.22806">
        <ele>3.000004</ele>
        <time>2024-09-28T10:02:56.000Z</time>
      </trkpt>
      <trkpt lat="39.136255" lon="-76.228227">
        <ele>2.999993</ele>
        <time>2024-09-28T10:03:02.000Z</time>
      </trkpt>
      <trkpt lat="39.135976" lon="-76.228409">
        <ele>2.999993</ele>
        <time>2024-09-28T10:03:05.000Z</time>
      </trkpt>
      <trkpt lat="39.135883" lon="-76.228652">
        <ele>2.999995</ele>
        <time>2024-09-28T10:03:07.000Z</time>
      </trkpt>
      <trkpt lat="39.135753" lon="-76.230016">
        <ele>3</ele>
        <time>2024-09-28T10:03:19.000Z</time>
      </trkpt>
      <trkpt lat="39.135691" lon="-76.230558">
        <ele>3.000005</ele>
        <time>2024-09-28T10:03:24.000Z</time>
      </trkpt>
      <trkpt lat="39.135656" lon="-76.230971">
        <ele>2.999999</ele>
        <time>2024-09-28T10:03:28.000Z</time>
      </trkpt>
      <trkpt lat="39.135634" lon="-76.231727">
        <ele>2.999996</ele>
        <time>2024-09-28T10:03:35.000Z</time>
      </trkpt>
      <trkpt lat="39.135634" lon="-76.231827">
        <ele>3.000007</ele>
        <time>2024-09-28T10:03:36.000Z</time>
      </trkpt>
      <trkpt lat="39.135875" lon="-76.232615">
        <ele>2.999999</ele>
        <time>2024-09-28T10:03:43.000Z</time>
      </trkpt>
      <trkpt lat="39.136522" lon="-76.234422">
        <ele>2.999992</ele>
        <time>2024-09-28T10:04:00.000Z</time>
      </trkpt>
      <trkpt lat="39.1366" lon="-76.234688">
        <ele>3.000001</ele>
        <time>2024-09-28T10:04:02.000Z</time>
      </trkpt>
      <trkpt lat="39.136578" lon="-76.234903">
        <ele>2.999991</ele>
        <time>2024-09-28T10:04:04.000Z</time>
      </trkpt>
      <trkpt lat="39.136317" lon="-76.235946">
        <ele>2.999996</ele>
        <time>2024-09-28T10:04:13.000Z</time>
      </trkpt>
      <trkpt lat="39.135931" lon="-76.237285">
        <ele>2.995294</ele>
        <time>2024-09-28T10:04:25.000Z</time>
      </trkpt>
      <trkpt lat="39.135715" lon="-76.238005">
        <ele>2.992628</ele>
        <time>2024-09-28T10:04:32.000Z</time>
      </trkpt>
      <trkpt lat="39.135558" lon="-76.238579">
        <ele>2.965606</ele>
        <time>2024-09-28T10:04:37.000Z</time>
      </trkpt>
      <trkpt lat="39.135155" lon="-76.240032">
        <ele>2.862703</ele>
        <time>2024-09-28T10:04:50.000Z</time>
      </trkpt>
      <trkpt lat="39.135115" lon="-76.240132">
        <ele>2.855471</ele>
        <time>2024-09-28T10:04:51.000Z</time>
      </trkpt>
      <trkpt lat="39.134847" lon="-76.240798">
        <ele>2.83420590979</ele>
        <time>2024-09-28T10:04:57.000Z</time>
      </trkpt>
      <trkpt lat="39.134703" lon="-76.241062">
        <ele>2.82505862478</ele>
        <time>2024-09-28T10:05:00.000Z</time>
      </trkpt>
      <trkpt lat="39.134351" lon="-76.241728">
        <ele>2.80221691572</ele>
        <time>2024-09-28T10:05:07.000Z</time>
      </trkpt>
      <trkpt lat="39.134223" lon="-76.241934">
        <ele>2.79473596292</ele>
        <time>2024-09-28T10:05:09.000Z</time>
      </trkpt>
    </trkseg>
  </trk>
</gpx>

<!--
Performance optimized by W3 Total Cache. Learn more: https://www.boldgrid.com/w3-total-cache/?utm_source=w3tc&utm_medium=footer_comment&utm_campaign=free_plugin

Page Caching using Disk: Enhanced{w3tc_pagecache_reject_reason} 

Served from: www.aquabike.world @ 2026-05-10 01:41:45 by W3 Total Cache
-->